sensor_id;sensor_type;location;lat;lon;timestamp;pressure;altitude;pressure_sealevel;temperature;humidity
45323;BME280;31382;50.200;8.674;2024-01-27T00:02:40;102154.72;;;7.90;55.50
45323;BME280;31382;50.200;8.674;2024-01-27T00:07:41;102155.47;;;7.79;55.38
45323;BME280;31382;50.200;8.674;2024-01-27T00:12:43;102151.72;;;7.82;55.79
45323;BME280;31382;50.200;8.674;2024-01-27T00:17:44;102156.31;;;7.80;55.55
45323;BME280;31382;50.200;8.674;2024-01-27T00:22:46;102158.78;;;7.59;55.75
45323;BME280;31382;50.200;8.674;2024-01-27T00:27:48;102166.06;;;7.44;56.41
45323;BME280;31382;50.200;8.674;2024-01-27T00:32:50;102162.56;;;7.30;56.69
45323;BME280;31382;50.200;8.674;2024-01-27T00:37:52;102159.69;;;7.21;57.11
45323;BME280;31382;50.200;8.674;2024-01-27T00:42:54;102161.22;;;7.12;56.90
45323;BME280;31382;50.200;8.674;2024-01-27T00:47:56;102171.38;;;7.07;57.01
45323;BME280;31382;50.200;8.674;2024-01-27T00:52:58;102168.81;;;7.05;57.54
45323;BME280;31382;50.200;8.674;2024-01-27T00:57:59;102167.00;;;7.06;57.34
45323;BME280;31382;50.200;8.674;2024-01-27T01:03:01;102179.09;;;7.11;57.29
45323;BME280;31382;50.200;8.674;2024-01-27T01:08:02;102182.94;;;7.07;57.15
45323;BME280;31382;50.200;8.674;2024-01-27T01:13:04;102185.09;;;6.89;57.70
45323;BME280;31382;50.200;8.674;2024-01-27T01:18:06;102183.88;;;6.81;58.43
45323;BME280;31382;50.200;8.674;2024-01-27T01:23:07;102182.28;;;6.78;58.77
45323;BME280;31382;50.200;8.674;2024-01-27T01:28:09;102193.19;;;6.75;58.73
45323;BME280;31382;50.200;8.674;2024-01-27T01:33:11;102197.69;;;6.74;58.00
45323;BME280;31382;50.200;8.674;2024-01-27T01:38:13;102214.88;;;6.70;58.28
45323;BME280;31382;50.200;8.674;2024-01-27T01:43:14;102219.56;;;6.67;59.06
45323;BME280;31382;50.200;8.674;2024-01-27T01:48:16;102221.50;;;6.65;59.08
45323;BME280;31382;50.200;8.674;2024-01-27T01:53:18;102228.63;;;6.51;59.26
45323;BME280;31382;50.200;8.674;2024-01-27T01:58:19;102217.00;;;6.52;58.94
45323;BME280;31382;50.200;8.674;2024-01-27T02:03:21;102232.38;;;6.49;59.46
45323;BME280;31382;50.200;8.674;2024-01-27T02:08:22;102237.28;;;6.42;59.57
45323;BME280;31382;50.200;8.674;2024-01-27T02:13:24;102236.72;;;6.37;59.42
45323;BME280;31382;50.200;8.674;2024-01-27T02:18:26;102227.19;;;6.33;59.98
45323;BME280;31382;50.200;8.674;2024-01-27T02:23:28;102221.75;;;6.34;59.86
45323;BME280;31382;50.200;8.674;2024-01-27T02:28:30;102224.50;;;6.20;59.65
45323;BME280;31382;50.200;8.674;2024-01-27T02:33:34;102235.44;;;6.15;59.76
45323;BME280;31382;50.200;8.674;2024-01-27T02:38:36;102235.19;;;6.06;60.14
45323;BME280;31382;50.200;8.674;2024-01-27T02:43:38;102247.72;;;5.91;59.54
45323;BME280;31382;50.200;8.674;2024-01-27T02:48:44;102239.91;;;5.73;60.02
45323;BME280;31382;50.200;8.674;2024-01-27T02:53:46;102256.97;;;5.56;60.43
45323;BME280;31382;50.200;8.674;2024-01-27T02:58:48;102257.38;;;5.36;60.45
45323;BME280;31382;50.200;8.674;2024-01-27T03:03:49;102252.31;;;5.17;61.39
45323;BME280;31382;50.200;8.674;2024-01-27T03:08:51;102253.72;;;5.08;60.75
45323;BME280;31382;50.200;8.674;2024-01-27T03:13:53;102266.84;;;4.97;60.96
45323;BME280;31382;50.200;8.674;2024-01-27T03:18:55;102265.84;;;4.84;61.50
45323;BME280;31382;50.200;8.674;2024-01-27T03:23:57;102269.06;;;4.74;61.90
45323;BME280;31382;50.200;8.674;2024-01-27T03:28:58;102272.47;;;4.62;61.99
45323;BME280;31382;50.200;8.674;2024-01-27T03:34:01;102268.59;;;4.52;62.30
45323;BME280;31382;50.200;8.674;2024-01-27T03:39:02;102267.34;;;4.43;62.42
45323;BME280;31382;50.200;8.674;2024-01-27T03:44:04;102266.94;;;4.35;62.84
45323;BME280;31382;50.200;8.674;2024-01-27T03:49:06;102264.34;;;4.33;63.07
45323;BME280;31382;50.200;8.674;2024-01-27T03:54:08;102268.13;;;4.29;62.64
45323;BME280;31382;50.200;8.674;2024-01-27T03:59:10;102269.75;;;4.32;63.61
45323;BME280;31382;50.200;8.674;2024-01-27T04:04:13;102270.53;;;4.34;63.29
45323;BME280;31382;50.200;8.674;2024-01-27T04:09:15;102278.59;;;4.32;63.56
45323;BME280;31382;50.200;8.674;2024-01-27T04:14:17;102289.38;;;4.15;63.98
45323;BME280;31382;50.200;8.674;2024-01-27T04:19:19;102288.75;;;4.10;64.01
45323;BME280;31382;50.200;8.674;2024-01-27T04:24:20;102292.69;;;4.03;63.99
45323;BME280;31382;50.200;8.674;2024-01-27T04:29:22;102291.41;;;3.94;64.34
45323;BME280;31382;50.200;8.674;2024-01-27T04:34:23;102290.78;;;3.89;63.91
45323;BME280;31382;50.200;8.674;2024-01-27T04:39:24;102296.56;;;3.81;64.19
45323;BME280;31382;50.200;8.674;2024-01-27T04:44:26;102307.75;;;3.70;64.09
45323;BME280;31382;50.200;8.674;2024-01-27T04:49:28;102307.31;;;3.62;64.39
45323;BME280;31382;50.200;8.674;2024-01-27T04:54:30;102320.94;;;3.56;64.88
45323;BME280;31382;50.200;8.674;2024-01-27T04:59:32;102314.06;;;3.52;64.72
45323;BME280;31382;50.200;8.674;2024-01-27T05:04:34;102312.28;;;3.52;65.07
45323;BME280;31382;50.200;8.674;2024-01-27T05:09:36;102313.97;;;3.53;65.25
45323;BME280;31382;50.200;8.674;2024-01-27T05:14:43;102328.38;;;3.49;65.32
45323;BME280;31382;50.200;8.674;2024-01-27T05:19:44;102330.19;;;3.49;65.46
45323;BME280;31382;50.200;8.674;2024-01-27T05:24:46;102328.63;;;3.45;65.54
45323;BME280;31382;50.200;8.674;2024-01-27T05:29:48;102346.38;;;3.44;65.41
45323;BME280;31382;50.200;8.674;2024-01-27T05:34:49;102350.91;;;3.42;65.71
45323;BME280;31382;50.200;8.674;2024-01-27T05:39:51;102347.41;;;3.42;65.79
45323;BME280;31382;50.200;8.674;2024-01-27T05:44:52;102348.59;;;3.36;65.75
45323;BME280;31382;50.200;8.674;2024-01-27T05:49:54;102354.22;;;3.30;65.64
45323;BME280;31382;50.200;8.674;2024-01-27T05:54:55;102356.25;;;3.25;65.95
45323;BME280;31382;50.200;8.674;2024-01-27T05:59:56;102360.13;;;3.17;66.42
45323;BME280;31382;50.200;8.674;2024-01-27T06:04:58;102370.06;;;3.14;66.67
45323;BME280;31382;50.200;8.674;2024-01-27T06:10:00;102372.56;;;3.17;66.89
45323;BME280;31382;50.200;8.674;2024-01-27T06:15:01;102370.69;;;3.19;67.09
45323;BME280;31382;50.200;8.674;2024-01-27T06:20:03;102362.59;;;3.22;66.92
45323;BME280;31382;50.200;8.674;2024-01-27T06:25:07;102377.50;;;3.25;66.86
45323;BME280;31382;50.200;8.674;2024-01-27T06:30:10;102379.38;;;3.23;66.54
45323;BME280;31382;50.200;8.674;2024-01-27T06:35:11;102382.09;;;3.21;66.85
45323;BME280;31382;50.200;8.674;2024-01-27T06:40:13;102392.13;;;3.16;67.01
45323;BME280;31382;50.200;8.674;2024-01-27T06:45:16;102394.16;;;3.11;67.15
45323;BME280;31382;50.200;8.674;2024-01-27T06:50:17;102395.38;;;3.04;67.03
45323;BME280;31382;50.200;8.674;2024-01-27T06:55:19;102405.00;;;3.06;67.60
45323;BME280;31382;50.200;8.674;2024-01-27T07:00:20;102392.50;;;3.08;67.38
45323;BME280;31382;50.200;8.674;2024-01-27T07:05:22;102402.19;;;3.09;67.51
45323;BME280;31382;50.200;8.674;2024-01-27T07:10:23;102400.78;;;3.20;67.04
45323;BME280;31382;50.200;8.674;2024-01-27T07:15:25;102389.22;;;3.21;66.84
45323;BME280;31382;50.200;8.674;2024-01-27T07:20:27;102390.00;;;3.23;66.77
45323;BME280;31382;50.200;8.674;2024-01-27T07:25:30;102397.97;;;3.23;66.73
45323;BME280;31382;50.200;8.674;2024-01-27T07:30:32;102401.88;;;3.15;66.95
45323;BME280;31382;50.200;8.674;2024-01-27T07:35:33;102397.13;;;3.05;67.24
45323;BME280;31382;50.200;8.674;2024-01-27T07:40:35;102396.72;;;2.95;67.79
45323;BME280;31382;50.200;8.674;2024-01-27T07:45:37;102389.34;;;3.00;67.13
45323;BME280;31382;50.200;8.674;2024-01-27T07:50:38;102400.63;;;3.05;67.13
45323;BME280;31382;50.200;8.674;2024-01-27T07:55:40;102405.53;;;2.95;67.89
45323;BME280;31382;50.200;8.674;2024-01-27T08:00:41;102402.88;;;2.95;67.83
45323;BME280;31382;50.200;8.674;2024-01-27T08:05:43;102406.00;;;3.04;68.08
45323;BME280;31382;50.200;8.674;2024-01-27T08:10:44;102416.72;;;3.20;67.42
45323;BME280;31382;50.200;8.674;2024-01-27T08:15:46;102430.28;;;3.32;67.62
45323;BME280;31382;50.200;8.674;2024-01-27T08:20:48;102429.88;;;3.40;67.64
45323;BME280;31382;50.200;8.674;2024-01-27T08:25:49;102426.13;;;3.44;67.68
45323;BME280;31382;50.200;8.674;2024-01-27T08:30:54;102434.66;;;3.51;67.95
45323;BME280;31382;50.200;8.674;2024-01-27T08:35:55;102437.94;;;3.56;67.84
45323;BME280;31382;50.200;8.674;2024-01-27T08:40:57;102443.72;;;3.64;68.09
45323;BME280;31382;50.200;8.674;2024-01-27T08:45:58;102439.03;;;3.69;68.28
45323;BME280;31382;50.200;8.674;2024-01-27T08:51:01;102439.00;;;3.87;68.62
45323;BME280;31382;50.200;8.674;2024-01-27T08:56:03;102448.22;;;3.97;68.05
45323;BME280;31382;50.200;8.674;2024-01-27T09:01:04;102451.88;;;4.12;68.07
45323;BME280;31382;50.200;8.674;2024-01-27T09:06:09;102464.00;;;4.17;68.03
45323;BME280;31382;50.200;8.674;2024-01-27T09:11:11;102459.88;;;4.28;68.40
45323;BME280;31382;50.200;8.674;2024-01-27T09:16:13;102472.84;;;4.34;68.73
45323;BME280;31382;50.200;8.674;2024-01-27T09:21:16;102469.09;;;4.38;68.67
45323;BME280;31382;50.200;8.674;2024-01-27T09:26:21;102471.88;;;4.52;68.73
45323;BME280;31382;50.200;8.674;2024-01-27T09:31:24;102469.56;;;4.62;68.14
45323;BME280;31382;50.200;8.674;2024-01-27T09:36:26;102470.59;;;4.75;68.29
45323;BME280;31382;50.200;8.674;2024-01-27T09:41:30;102474.56;;;5.00;67.50
45323;BME280;31382;50.200;8.674;2024-01-27T09:46:33;102484.53;;;4.96;67.88
45323;BME280;31382;50.200;8.674;2024-01-27T09:51:35;102487.03;;;5.00;68.20
45323;BME280;31382;50.200;8.674;2024-01-27T09:56:37;102493.78;;;5.05;67.93
45323;BME280;31382;50.200;8.674;2024-01-27T10:01:39;102489.22;;;5.23;67.72
45323;BME280;31382;50.200;8.674;2024-01-27T10:06:41;102483.75;;;5.41;67.24
45323;BME280;31382;50.200;8.674;2024-01-27T10:11:45;102473.78;;;5.44;67.62
45323;BME280;31382;50.200;8.674;2024-01-27T10:16:47;102473.06;;;5.56;66.75
45323;BME280;31382;50.200;8.674;2024-01-27T10:21:59;102470.06;;;5.77;66.42
45323;BME280;31382;50.200;8.674;2024-01-27T10:27:02;102466.75;;;5.88;66.60
45323;BME280;31382;50.200;8.674;2024-01-27T10:32:08;102464.91;;;6.04;66.33
45323;BME280;31382;50.200;8.674;2024-01-27T10:37:12;102455.66;;;6.24;65.92
45323;BME280;31382;50.200;8.674;2024-01-27T10:42:14;102452.03;;;6.25;66.19
45323;BME280;31382;50.200;8.674;2024-01-27T10:47:17;102437.03;;;6.37;65.48
45323;BME280;31382;50.200;8.674;2024-01-27T10:52:23;102432.06;;;6.60;65.21
45323;BME280;31382;50.200;8.674;2024-01-27T10:57:30;102414.72;;;6.80;64.71
45323;BME280;31382;50.200;8.674;2024-01-27T11:02:34;102400.56;;;6.92;65.00
45323;BME280;31382;50.200;8.674;2024-01-27T11:07:38;102401.75;;;7.01;64.81
45323;BME280;31382;50.200;8.674;2024-01-27T11:12:40;102393.78;;;7.13;64.28
45323;BME280;31382;50.200;8.674;2024-01-27T11:17:42;102386.53;;;7.28;64.23
45323;BME280;31382;50.200;8.674;2024-01-27T11:22:43;102376.28;;;7.35;63.94
45323;BME280;31382;50.200;8.674;2024-01-27T11:27:46;102363.75;;;7.48;64.15
45323;BME280;31382;50.200;8.674;2024-01-27T11:32:48;102369.78;;;7.65;63.76
45323;BME280;31382;50.200;8.674;2024-01-27T11:37:50;102379.28;;;7.82;63.07
45323;BME280;31382;50.200;8.674;2024-01-27T11:42:56;102395.69;;;7.90;63.24
45323;BME280;31382;50.200;8.674;2024-01-27T11:48:00;102384.31;;;7.99;62.79
45323;BME280;31382;50.200;8.674;2024-01-27T11:53:01;102386.66;;;8.17;62.21
45323;BME280;31382;50.200;8.674;2024-01-27T11:58:04;102393.72;;;8.18;61.97
45323;BME280;31382;50.200;8.674;2024-01-27T12:03:06;102389.94;;;8.33;61.81
45323;BME280;31382;50.200;8.674;2024-01-27T12:08:08;102389.09;;;8.45;61.38
45323;BME280;31382;50.200;8.674;2024-01-27T12:13:10;102386.00;;;8.63;61.07
45323;BME280;31382;50.200;8.674;2024-01-27T12:18:12;102404.28;;;8.82;60.88
45323;BME280;31382;50.200;8.674;2024-01-27T12:23:14;102390.84;;;8.95;60.58
45323;BME280;31382;50.200;8.674;2024-01-27T12:28:16;102379.38;;;9.04;59.64
45323;BME280;31382;50.200;8.674;2024-01-27T12:33:19;102380.88;;;9.08;59.61
45323;BME280;31382;50.200;8.674;2024-01-27T12:38:27;102374.59;;;9.20;59.21
45323;BME280;31382;50.200;8.674;2024-01-27T12:43:28;102372.66;;;9.33;58.82
45323;BME280;31382;50.200;8.674;2024-01-27T12:48:30;102371.75;;;9.46;58.38
45323;BME280;31382;50.200;8.674;2024-01-27T12:53:32;102360.63;;;9.50;58.30
45323;BME280;31382;50.200;8.674;2024-01-27T12:58:34;102358.56;;;9.54;57.55
45323;BME280;31382;50.200;8.674;2024-01-27T13:03:37;102358.44;;;9.56;57.31
45323;BME280;31382;50.200;8.674;2024-01-27T13:08:44;102347.09;;;9.63;56.68
45323;BME280;31382;50.200;8.674;2024-01-27T13:13:46;102351.63;;;9.63;56.40
45323;BME280;31382;50.200;8.674;2024-01-27T13:18:50;102331.47;;;9.68;56.39
45323;BME280;31382;50.200;8.674;2024-01-27T13:23:52;102345.16;;;9.77;56.00
45323;BME280;31382;50.200;8.674;2024-01-27T13:28:56;102345.41;;;9.73;55.44
45323;BME280;31382;50.200;8.674;2024-01-27T13:33:57;102340.28;;;9.70;55.33
45323;BME280;31382;50.200;8.674;2024-01-27T13:38:59;102340.66;;;9.66;54.97
45323;BME280;31382;50.200;8.674;2024-01-27T13:44:01;102337.97;;;9.66;54.75
45323;BME280;31382;50.200;8.674;2024-01-27T13:49:03;102327.94;;;9.79;54.33
45323;BME280;31382;50.200;8.674;2024-01-27T13:54:05;102329.28;;;9.85;54.13
45323;BME280;31382;50.200;8.674;2024-01-27T13:59:10;102315.72;;;9.75;53.94
45323;BME280;31382;50.200;8.674;2024-01-27T14:04:12;102311.94;;;9.66;53.58
45323;BME280;31382;50.200;8.674;2024-01-27T14:09:14;102308.75;;;9.61;52.96
45323;BME280;31382;50.200;8.674;2024-01-27T14:14:16;102315.59;;;9.65;53.37
45323;BME280;31382;50.200;8.674;2024-01-27T14:19:18;102314.88;;;9.75;53.04
45323;BME280;31382;50.200;8.674;2024-01-27T14:24:20;102310.84;;;9.69;52.82
45323;BME280;31382;50.200;8.674;2024-01-27T14:29:21;102307.19;;;9.70;52.98
45323;BME280;31382;50.200;8.674;2024-01-27T14:34:23;102311.69;;;9.69;53.01
45323;BME280;31382;50.200;8.674;2024-01-27T14:39:25;102302.31;;;9.64;52.97
45323;BME280;31382;50.200;8.674;2024-01-27T14:44:26;102314.41;;;9.58;52.91
45323;BME280;31382;50.200;8.674;2024-01-27T14:49:28;102314.88;;;9.52;52.72
45323;BME280;31382;50.200;8.674;2024-01-27T14:54:29;102314.75;;;9.42;52.61
45323;BME280;31382;50.200;8.674;2024-01-27T14:59:31;102313.88;;;9.42;52.55
45323;BME280;31382;50.200;8.674;2024-01-27T15:04:32;102313.13;;;9.40;52.34
45323;BME280;31382;50.200;8.674;2024-01-27T15:09:34;102303.25;;;9.29;52.68
45323;BME280;31382;50.200;8.674;2024-01-27T15:14:36;102299.84;;;9.27;52.56
45323;BME280;31382;50.200;8.674;2024-01-27T15:19:37;102301.16;;;9.21;52.55
45323;BME280;31382;50.200;8.674;2024-01-27T15:24:41;102300.31;;;9.21;52.26
45323;BME280;31382;50.200;8.674;2024-01-27T15:29:43;102294.84;;;9.22;52.10
45323;BME280;31382;50.200;8.674;2024-01-27T15:34:44;102294.22;;;9.19;52.38
45323;BME280;31382;50.200;8.674;2024-01-27T15:39:46;102295.41;;;9.15;52.02
45323;BME280;31382;50.200;8.674;2024-01-27T15:44:48;102290.66;;;9.07;52.42
45323;BME280;31382;50.200;8.674;2024-01-27T15:49:50;102295.13;;;8.95;52.86
45323;BME280;31382;50.200;8.674;2024-01-27T15:54:58;102285.44;;;8.81;52.92
45323;BME280;31382;50.200;8.674;2024-01-27T16:00:00;102291.78;;;8.56;53.33
45323;BME280;31382;50.200;8.674;2024-01-27T16:05:02;102309.31;;;8.36;53.74
45323;BME280;31382;50.200;8.674;2024-01-27T16:10:04;102312.91;;;8.24;53.40
45323;BME280;31382;50.200;8.674;2024-01-27T16:15:05;102318.94;;;8.14;53.38
45323;BME280;31382;50.200;8.674;2024-01-27T16:20:07;102328.31;;;7.96;53.79
45323;BME280;31382;50.200;8.674;2024-01-27T16:25:09;102320.81;;;7.75;54.65
45323;BME280;31382;50.200;8.674;2024-01-27T16:30:11;102323.06;;;7.56;54.86
45323;BME280;31382;50.200;8.674;2024-01-27T16:35:13;102329.72;;;7.38;55.17
45323;BME280;31382;50.200;8.674;2024-01-27T16:40:15;102326.50;;;7.20;55.60
45323;BME280;31382;50.200;8.674;2024-01-27T16:45:17;102324.97;;;7.03;56.02
45323;BME280;31382;50.200;8.674;2024-01-27T16:50:19;102329.53;;;6.88;55.82
45323;BME280;31382;50.200;8.674;2024-01-27T16:55:21;102329.59;;;6.73;56.04
45323;BME280;31382;50.200;8.674;2024-01-27T17:00:23;102338.63;;;6.58;57.33
45323;BME280;31382;50.200;8.674;2024-01-27T17:05:26;102341.13;;;6.47;56.66
45323;BME280;31382;50.200;8.674;2024-01-27T17:10:27;102341.28;;;6.31;57.49
45323;BME280;31382;50.200;8.674;2024-01-27T17:15:29;102339.41;;;6.19;57.41
45323;BME280;31382;50.200;8.674;2024-01-27T17:20:31;102351.81;;;6.05;57.78
45323;BME280;31382;50.200;8.674;2024-01-27T17:25:33;102348.84;;;5.81;58.12
45323;BME280;31382;50.200;8.674;2024-01-27T17:30:34;102354.66;;;5.59;59.19
45323;BME280;31382;50.200;8.674;2024-01-27T17:35:36;102363.78;;;5.55;59.65
45323;BME280;31382;50.200;8.674;2024-01-27T17:40:38;102364.34;;;5.46;59.29
45323;BME280;31382;50.200;8.674;2024-01-27T17:45:39;102362.41;;;5.33;59.63
45323;BME280;31382;50.200;8.674;2024-01-27T17:50:42;102355.25;;;5.20;60.08
45323;BME280;31382;50.200;8.674;2024-01-27T17:55:43;102362.47;;;5.18;60.18
45323;BME280;31382;50.200;8.674;2024-01-27T18:00:45;102360.94;;;5.13;60.19
45323;BME280;31382;50.200;8.674;2024-01-27T18:05:47;102367.25;;;4.96;60.34
45323;BME280;31382;50.200;8.674;2024-01-27T18:10:51;102370.53;;;4.86;60.71
45323;BME280;31382;50.200;8.674;2024-01-27T18:15:52;102380.34;;;4.69;61.93
45323;BME280;31382;50.200;8.674;2024-01-27T18:20:54;102376.66;;;4.72;61.09
45323;BME280;31382;50.200;8.674;2024-01-27T18:25:55;102376.00;;;4.68;61.69
45323;BME280;31382;50.200;8.674;2024-01-27T18:30:57;102371.25;;;4.57;61.89
45323;BME280;31382;50.200;8.674;2024-01-27T18:35:58;102366.03;;;4.40;61.63
45323;BME280;31382;50.200;8.674;2024-01-27T18:41:00;102369.78;;;4.20;62.24
45323;BME280;31382;50.200;8.674;2024-01-27T18:46:02;102372.88;;;4.12;62.50
45323;BME280;31382;50.200;8.674;2024-01-27T18:51:05;102374.75;;;4.10;62.92
45323;BME280;31382;50.200;8.674;2024-01-27T18:56:06;102378.88;;;4.00;63.10
45323;BME280;31382;50.200;8.674;2024-01-27T19:01:09;102376.22;;;4.00;62.59
45323;BME280;31382;50.200;8.674;2024-01-27T19:06:13;102381.25;;;3.89;63.04
45323;BME280;31382;50.200;8.674;2024-01-27T19:11:14;102378.06;;;3.82;63.24
45323;BME280;31382;50.200;8.674;2024-01-27T19:16:16;102374.69;;;3.78;63.37
45323;BME280;31382;50.200;8.674;2024-01-27T19:21:17;102370.75;;;3.70;62.79
45323;BME280;31382;50.200;8.674;2024-01-27T19:26:19;102365.13;;;3.58;62.93
45323;BME280;31382;50.200;8.674;2024-01-27T19:31:20;102364.50;;;3.53;63.04
45323;BME280;31382;50.200;8.674;2024-01-27T19:36:22;102368.97;;;3.35;63.68
45323;BME280;31382;50.200;8.674;2024-01-27T19:41:24;102375.16;;;3.36;63.68
45323;BME280;31382;50.200;8.674;2024-01-27T19:46:26;102377.13;;;3.32;64.10
45323;BME280;31382;50.200;8.674;2024-01-27T19:51:28;102376.09;;;3.17;64.39
45323;BME280;31382;50.200;8.674;2024-01-27T19:56:30;102378.59;;;3.03;64.72
45323;BME280;31382;50.200;8.674;2024-01-27T20:01:32;102371.00;;;3.13;64.74
45323;BME280;31382;50.200;8.674;2024-01-27T20:06:35;102360.25;;;3.16;64.82
45323;BME280;31382;50.200;8.674;2024-01-27T20:11:37;102359.59;;;3.11;64.38
45323;BME280;31382;50.200;8.674;2024-01-27T20:16:39;102358.97;;;3.06;64.36
45323;BME280;31382;50.200;8.674;2024-01-27T20:21:40;102355.00;;;2.97;64.70
45323;BME280;31382;50.200;8.674;2024-01-27T20:26:43;102356.94;;;2.93;64.30
45323;BME280;31382;50.200;8.674;2024-01-27T20:31:45;102353.72;;;2.87;64.64
45323;BME280;31382;50.200;8.674;2024-01-27T20:36:47;102352.84;;;2.69;65.31
45323;BME280;31382;50.200;8.674;2024-01-27T20:41:49;102351.91;;;2.70;64.92
45323;BME280;31382;50.200;8.674;2024-01-27T20:46:51;102360.59;;;2.54;65.29
45323;BME280;31382;50.200;8.674;2024-01-27T20:51:53;102357.88;;;2.56;65.42
45323;BME280;31382;50.200;8.674;2024-01-27T20:56:54;102358.72;;;2.56;65.17
45323;BME280;31382;50.200;8.674;2024-01-27T21:01:56;102351.78;;;2.54;64.92
45323;BME280;31382;50.200;8.674;2024-01-27T21:07:03;102357.25;;;2.51;65.52
45323;BME280;31382;50.200;8.674;2024-01-27T21:12:05;102347.63;;;2.48;65.39
45323;BME280;31382;50.200;8.674;2024-01-27T21:17:06;102351.44;;;2.43;65.40
45323;BME280;31382;50.200;8.674;2024-01-27T21:22:08;102357.50;;;2.27;65.95
45323;BME280;31382;50.200;8.674;2024-01-27T21:27:10;102360.06;;;2.29;65.62
45323;BME280;31382;50.200;8.674;2024-01-27T21:32:11;102358.34;;;2.28;66.02
45323;BME280;31382;50.200;8.674;2024-01-27T21:37:13;102346.78;;;2.29;65.78
45323;BME280;31382;50.200;8.674;2024-01-27T21:42:14;102335.06;;;2.15;65.90
45323;BME280;31382;50.200;8.674;2024-01-27T21:47:16;102335.19;;;2.12;66.03
45323;BME280;31382;50.200;8.674;2024-01-27T21:52:18;102331.81;;;2.09;66.25
45323;BME280;31382;50.200;8.674;2024-01-27T21:57:19;102329.22;;;2.07;66.18
45323;BME280;31382;50.200;8.674;2024-01-27T22:02:21;102324.94;;;2.05;66.09
45323;BME280;31382;50.200;8.674;2024-01-27T22:07:22;102332.88;;;2.05;65.98
45323;BME280;31382;50.200;8.674;2024-01-27T22:12:23;102324.38;;;1.98;66.43
45323;BME280;31382;50.200;8.674;2024-01-27T22:17:25;102319.13;;;1.96;65.80
45323;BME280;31382;50.200;8.674;2024-01-27T22:22:27;102321.22;;;1.90;65.96
45323;BME280;31382;50.200;8.674;2024-01-27T22:27:29;102322.41;;;1.83;66.28
45323;BME280;31382;50.200;8.674;2024-01-27T22:32:30;102321.06;;;1.74;66.43
45323;BME280;31382;50.200;8.674;2024-01-27T22:37:32;102318.47;;;1.72;67.36
45323;BME280;31382;50.200;8.674;2024-01-27T22:42:33;102319.25;;;1.74;66.48
45323;BME280;31382;50.200;8.674;2024-01-27T22:47:35;102331.06;;;1.67;66.92
45323;BME280;31382;50.200;8.674;2024-01-27T22:52:38;102325.91;;;1.64;66.95
45323;BME280;31382;50.200;8.674;2024-01-27T22:57:40;102331.41;;;1.59;66.81
45323;BME280;31382;50.200;8.674;2024-01-27T23:02:41;102324.53;;;1.55;67.27
45323;BME280;31382;50.200;8.674;2024-01-27T23:07:43;102328.13;;;1.54;67.12
45323;BME280;31382;50.200;8.674;2024-01-27T23:12:44;102317.00;;;1.46;66.79
45323;BME280;31382;50.200;8.674;2024-01-27T23:17:46;102315.41;;;1.42;67.76
45323;BME280;31382;50.200;8.674;2024-01-27T23:22:47;102312.91;;;1.39;67.97
45323;BME280;31382;50.200;8.674;2024-01-27T23:27:49;102312.09;;;1.37;67.77
45323;BME280;31382;50.200;8.674;2024-01-27T23:32:50;102301.44;;;1.38;67.58
45323;BME280;31382;50.200;8.674;2024-01-27T23:37:52;102306.75;;;1.38;67.18
45323;BME280;31382;50.200;8.674;2024-01-27T23:42:54;102296.53;;;1.29;67.39
45323;BME280;31382;50.200;8.674;2024-01-27T23:47:55;102299.47;;;1.23;68.04
45323;BME280;31382;50.200;8.674;2024-01-27T23:53:00;102283.56;;;1.23;68.00
45323;BME280;31382;50.200;8.674;2024-01-27T23:58:09;102286.16;;;1.25;68.20
